sensor_id;sensor_type;location;lat;lon;timestamp;P1;durP1;ratioP1;P2;durP2;ratioP2
19836;SDS011;10079;55.740;37.662;2023-02-20T00:01:05;28.90;;;13.33;;
19836;SDS011;10079;55.740;37.662;2023-02-20T00:03:46;26.93;;;12.83;;
19836;SDS011;10079;55.740;37.662;2023-02-20T00:06:26;27.13;;;12.83;;
19836;SDS011;10079;55.740;37.662;2023-02-20T00:09:08;26.37;;;13.03;;
19836;SDS011;10079;55.740;37.662;2023-02-20T00:12:00;26.63;;;12.50;;
19836;SDS011;10079;55.740;37.662;2023-02-20T00:14:41;25.30;;;12.70;;
19836;SDS011;10079;55.740;37.662;2023-02-20T00:17:22;28.77;;;13.27;;
19836;SDS011;10079;55.740;37.662;2023-02-20T00:20:03;25.63;;;12.93;;
19836;SDS011;10079;55.740;37.662;2023-02-20T00:22:57;27.93;;;13.47;;
19836;SDS011;10079;55.740;37.662;2023-02-20T00:25:38;27.53;;;13.97;;
19836;SDS011;10079;55.740;37.662;2023-02-20T00:28:18;30.10;;;15.07;;
19836;SDS011;10079;55.740;37.662;2023-02-20T00:30:59;28.93;;;14.67;;
19836;SDS011;10079;55.740;37.662;2023-02-20T00:33:44;29.43;;;14.90;;
19836;SDS011;10079;55.740;37.662;2023-02-20T00:36:24;29.60;;;15.23;;
19836;SDS011;10079;55.740;37.662;2023-02-20T00:39:17;29.20;;;15.07;;
19836;SDS011;10079;55.740;37.662;2023-02-20T00:41:58;30.40;;;14.77;;
19836;SDS011;10079;55.740;37.662;2023-02-20T00:44:42;30.27;;;15.20;;
19836;SDS011;10079;55.740;37.662;2023-02-20T00:47:23;29.57;;;15.57;;
19836;SDS011;10079;55.740;37.662;2023-02-20T00:50:07;30.73;;;14.50;;
19836;SDS011;10079;55.740;37.662;2023-02-20T00:52:54;25.67;;;13.63;;
19836;SDS011;10079;55.740;37.662;2023-02-20T01:38:42;27.30;;;15.47;;
19836;SDS011;10079;55.740;37.662;2023-02-20T01:41:23;25.67;;;14.13;;
19836;SDS011;10079;55.740;37.662;2023-02-20T01:44:04;26.23;;;13.97;;
19836;SDS011;10079;55.740;37.662;2023-02-20T01:46:57;25.87;;;13.73;;
19836;SDS011;10079;55.740;37.662;2023-02-20T01:49:43;28.77;;;14.73;;
19836;SDS011;10079;55.740;37.662;2023-02-20T01:52:29;26.63;;;13.63;;
19836;SDS011;10079;55.740;37.662;2023-02-20T01:55:12;27.43;;;13.73;;
19836;SDS011;10079;55.740;37.662;2023-02-20T01:57:58;28.23;;;14.27;;
19836;SDS011;10079;55.740;37.662;2023-02-20T02:00:40;26.07;;;14.63;;
19836;SDS011;10079;55.740;37.662;2023-02-20T02:03:22;26.87;;;13.07;;
19836;SDS011;10079;55.740;37.662;2023-02-20T02:19:59;25.50;;;12.50;;
19836;SDS011;10079;55.740;37.662;2023-02-20T02:26:31;22.67;;;12.07;;
19836;SDS011;10079;55.740;37.662;2023-02-20T02:32:12;23.93;;;12.03;;
19836;SDS011;10079;55.740;37.662;2023-02-20T02:35:00;22.30;;;11.60;;
19836;SDS011;10079;55.740;37.662;2023-02-20T02:37:55;22.43;;;11.60;;
19836;SDS011;10079;55.740;37.662;2023-02-20T02:40:41;25.83;;;12.73;;
19836;SDS011;10079;55.740;37.662;2023-02-20T02:46:41;21.53;;;11.50;;
19836;SDS011;10079;55.740;37.662;2023-02-20T02:49:26;27.40;;;12.57;;
19836;SDS011;10079;55.740;37.662;2023-02-20T02:52:22;23.73;;;11.83;;
19836;SDS011;10079;55.740;37.662;2023-02-20T02:55:04;20.90;;;11.33;;
19836;SDS011;10079;55.740;37.662;2023-02-20T02:57:45;22.87;;;11.20;;
19836;SDS011;10079;55.740;37.662;2023-02-20T03:00:42;27.47;;;11.90;;
19836;SDS011;10079;55.740;37.662;2023-02-20T03:03:23;21.17;;;10.87;;
19836;SDS011;10079;55.740;37.662;2023-02-20T03:06:09;23.83;;;11.23;;
19836;SDS011;10079;55.740;37.662;2023-02-20T03:08:52;19.67;;;10.40;;
19836;SDS011;10079;55.740;37.662;2023-02-20T03:11:32;21.57;;;10.77;;
19836;SDS011;10079;55.740;37.662;2023-02-20T03:14:14;20.13;;;10.27;;
19836;SDS011;10079;55.740;37.662;2023-02-20T03:16:59;21.40;;;11.20;;
19836;SDS011;10079;55.740;37.662;2023-02-20T03:19:46;24.77;;;11.60;;
19836;SDS011;10079;55.740;37.662;2023-02-20T03:22:32;21.97;;;10.80;;
19836;SDS011;10079;55.740;37.662;2023-02-20T03:25:18;22.33;;;11.77;;
19836;SDS011;10079;55.740;37.662;2023-02-20T03:28:02;20.23;;;10.20;;
19836;SDS011;10079;55.740;37.662;2023-02-20T03:30:45;22.90;;;10.93;;
19836;SDS011;10079;55.740;37.662;2023-02-20T03:33:31;22.47;;;11.67;;
19836;SDS011;10079;55.740;37.662;2023-02-20T03:47:01;23.23;;;12.53;;
19836;SDS011;10079;55.740;37.662;2023-02-20T03:49:53;26.97;;;11.60;;
19836;SDS011;10079;55.740;37.662;2023-02-20T04:03:25;25.07;;;12.20;;
19836;SDS011;10079;55.740;37.662;2023-02-20T04:06:06;20.83;;;11.37;;
19836;SDS011;10079;55.740;37.662;2023-02-20T04:08:53;20.87;;;10.53;;
19836;SDS011;10079;55.740;37.662;2023-02-20T04:11:35;19.20;;;10.57;;
19836;SDS011;10079;55.740;37.662;2023-02-20T04:14:20;20.37;;;10.57;;
19836;SDS011;10079;55.740;37.662;2023-02-20T04:27:44;23.63;;;12.00;;
19836;SDS011;10079;55.740;37.662;2023-02-20T04:30:24;19.47;;;11.70;;
19836;SDS011;10079;55.740;37.662;2023-02-20T04:33:05;20.87;;;10.70;;
19836;SDS011;10079;55.740;37.662;2023-02-20T04:35:46;22.07;;;11.03;;
19836;SDS011;10079;55.740;37.662;2023-02-20T04:38:30;23.73;;;11.67;;
19836;SDS011;10079;55.740;37.662;2023-02-20T04:41:14;22.80;;;11.00;;
19836;SDS011;10079;55.740;37.662;2023-02-20T04:43:59;21.27;;;10.77;;
19836;SDS011;10079;55.740;37.662;2023-02-20T04:46:48;22.80;;;11.63;;
19836;SDS011;10079;55.740;37.662;2023-02-20T04:49:32;22.63;;;11.00;;
19836;SDS011;10079;55.740;37.662;2023-02-20T04:52:13;21.70;;;10.03;;
19836;SDS011;10079;55.740;37.662;2023-02-20T04:55:03;21.83;;;11.30;;
19836;SDS011;10079;55.740;37.662;2023-02-20T04:57:52;28.37;;;12.07;;
19836;SDS011;10079;55.740;37.662;2023-02-20T05:00:33;21.57;;;10.67;;
19836;SDS011;10079;55.740;37.662;2023-02-20T05:03:13;24.30;;;11.00;;
19836;SDS011;10079;55.740;37.662;2023-02-20T05:05:54;23.27;;;10.53;;
19836;SDS011;10079;55.740;37.662;2023-02-20T05:08:38;30.53;;;13.10;;
19836;SDS011;10079;55.740;37.662;2023-02-20T05:11:19;23.10;;;11.13;;
19836;SDS011;10079;55.740;37.662;2023-02-20T05:14:00;19.30;;;10.70;;
19836;SDS011;10079;55.740;37.662;2023-02-20T05:16:41;21.57;;;10.77;;
19836;SDS011;10079;55.740;37.662;2023-02-20T05:19:21;19.40;;;11.37;;
19836;SDS011;10079;55.740;37.662;2023-02-20T05:22:02;23.70;;;12.13;;
19836;SDS011;10079;55.740;37.662;2023-02-20T05:24:43;20.80;;;11.03;;
19836;SDS011;10079;55.740;37.662;2023-02-20T05:27:23;22.27;;;11.63;;
19836;SDS011;10079;55.740;37.662;2023-02-20T05:30:05;22.97;;;11.60;;
19836;SDS011;10079;55.740;37.662;2023-02-20T05:32:49;22.03;;;11.30;;
19836;SDS011;10079;55.740;37.662;2023-02-20T05:35:30;22.07;;;11.30;;
19836;SDS011;10079;55.740;37.662;2023-02-20T05:38:15;27.87;;;12.33;;
19836;SDS011;10079;55.740;37.662;2023-02-20T05:40:56;22.03;;;10.73;;
19836;SDS011;10079;55.740;37.662;2023-02-20T05:43:40;23.43;;;11.67;;
19836;SDS011;10079;55.740;37.662;2023-02-20T05:46:25;24.87;;;12.37;;
19836;SDS011;10079;55.740;37.662;2023-02-20T05:49:05;23.97;;;11.73;;
19836;SDS011;10079;55.740;37.662;2023-02-20T05:51:49;22.73;;;10.53;;
19836;SDS011;10079;55.740;37.662;2023-02-20T05:54:30;21.13;;;10.73;;
19836;SDS011;10079;55.740;37.662;2023-02-20T05:57:11;20.17;;;10.60;;
19836;SDS011;10079;55.740;37.662;2023-02-20T05:59:51;19.37;;;11.50;;
19836;SDS011;10079;55.740;37.662;2023-02-20T06:02:32;18.60;;;10.07;;
19836;SDS011;10079;55.740;37.662;2023-02-20T06:05:21;21.07;;;11.03;;
19836;SDS011;10079;55.740;37.662;2023-02-20T06:08:05;20.57;;;10.27;;
19836;SDS011;10079;55.740;37.662;2023-02-20T06:10:46;22.10;;;10.63;;
19836;SDS011;10079;55.740;37.662;2023-02-20T06:13:39;23.70;;;11.00;;
19836;SDS011;10079;55.740;37.662;2023-02-20T06:37:43;20.17;;;11.67;;
19836;SDS011;10079;55.740;37.662;2023-02-20T06:40:37;18.77;;;10.50;;
19836;SDS011;10079;55.740;37.662;2023-02-20T06:43:20;30.87;;;11.87;;
19836;SDS011;10079;55.740;37.662;2023-02-20T06:46:01;20.00;;;10.10;;
19836;SDS011;10079;55.740;37.662;2023-02-20T06:59:32;19.80;;;11.00;;
19836;SDS011;10079;55.740;37.662;2023-02-20T07:12:52;20.30;;;11.13;;
19836;SDS011;10079;55.740;37.662;2023-02-20T07:15:33;19.97;;;10.53;;
19836;SDS011;10079;55.740;37.662;2023-02-20T07:18:22;20.47;;;11.17;;
19836;SDS011;10079;55.740;37.662;2023-02-20T07:21:03;21.07;;;10.40;;
19836;SDS011;10079;55.740;37.662;2023-02-20T07:23:44;19.77;;;10.33;;
19836;SDS011;10079;55.740;37.662;2023-02-20T07:36:56;18.57;;;11.13;;
19836;SDS011;10079;55.740;37.662;2023-02-20T07:39:37;20.13;;;11.20;;
19836;SDS011;10079;55.740;37.662;2023-02-20T07:42:21;20.17;;;10.23;;
19836;SDS011;10079;55.740;37.662;2023-02-20T07:45:02;19.53;;;11.13;;
19836;SDS011;10079;55.740;37.662;2023-02-20T07:47:43;18.80;;;10.60;;
19836;SDS011;10079;55.740;37.662;2023-02-20T07:50:25;21.47;;;9.47;;
19836;SDS011;10079;55.740;37.662;2023-02-20T07:53:06;19.67;;;10.43;;
19836;SDS011;10079;55.740;37.662;2023-02-20T07:55:47;22.67;;;10.70;;
19836;SDS011;10079;55.740;37.662;2023-02-20T07:58:31;17.80;;;10.60;;
19836;SDS011;10079;55.740;37.662;2023-02-20T08:01:12;16.77;;;9.03;;
19836;SDS011;10079;55.740;37.662;2023-02-20T08:03:53;17.47;;;9.47;;
19836;SDS011;10079;55.740;37.662;2023-02-20T08:06:37;20.20;;;10.07;;
19836;SDS011;10079;55.740;37.662;2023-02-20T08:09:18;18.17;;;9.33;;
19836;SDS011;10079;55.740;37.662;2023-02-20T08:11:59;23.57;;;10.90;;
19836;SDS011;10079;55.740;37.662;2023-02-20T08:14:40;16.10;;;9.07;;
19836;SDS011;10079;55.740;37.662;2023-02-20T08:17:21;19.77;;;10.53;;
19836;SDS011;10079;55.740;37.662;2023-02-20T08:20:02;20.80;;;10.60;;
19836;SDS011;10079;55.740;37.662;2023-02-20T08:22:43;22.53;;;11.80;;
19836;SDS011;10079;55.740;37.662;2023-02-20T08:25:24;18.23;;;10.23;;
19836;SDS011;10079;55.740;37.662;2023-02-20T08:28:06;20.50;;;10.90;;
19836;SDS011;10079;55.740;37.662;2023-02-20T08:30:46;20.70;;;11.30;;
19836;SDS011;10079;55.740;37.662;2023-02-20T08:33:36;20.47;;;11.97;;
19836;SDS011;10079;55.740;37.662;2023-02-20T09:08:14;21.37;;;11.80;;
19836;SDS011;10079;55.740;37.662;2023-02-20T09:10:56;25.57;;;13.43;;
19836;SDS011;10079;55.740;37.662;2023-02-20T09:13:42;25.03;;;12.33;;
19836;SDS011;10079;55.740;37.662;2023-02-20T09:16:22;24.90;;;12.30;;
19836;SDS011;10079;55.740;37.662;2023-02-20T09:19:07;22.77;;;11.40;;
19836;SDS011;10079;55.740;37.662;2023-02-20T09:21:48;21.67;;;11.37;;
19836;SDS011;10079;55.740;37.662;2023-02-20T09:24:33;22.57;;;12.10;;
19836;SDS011;10079;55.740;37.662;2023-02-20T09:27:18;21.87;;;11.23;;
19836;SDS011;10079;55.740;37.662;2023-02-20T09:29:58;20.80;;;10.50;;
19836;SDS011;10079;55.740;37.662;2023-02-20T09:43:50;21.40;;;11.40;;
19836;SDS011;10079;55.740;37.662;2023-02-20T09:46:26;20.07;;;10.87;;
19836;SDS011;10079;55.740;37.662;2023-02-20T09:52:08;22.67;;;11.53;;
19836;SDS011;10079;55.740;37.662;2023-02-20T09:54:50;20.37;;;10.57;;
19836;SDS011;10079;55.740;37.662;2023-02-20T09:57:31;21.13;;;10.70;;
19836;SDS011;10079;55.740;37.662;2023-02-20T10:00:13;22.70;;;12.00;;
19836;SDS011;10079;55.740;37.662;2023-02-20T10:03:09;20.93;;;10.97;;
19836;SDS011;10079;55.740;37.662;2023-02-20T10:06:15;17.93;;;9.93;;
19836;SDS011;10079;55.740;37.662;2023-02-20T10:08:55;20.53;;;10.07;;
19836;SDS011;10079;55.740;37.662;2023-02-20T10:11:44;16.43;;;8.90;;
19836;SDS011;10079;55.740;37.662;2023-02-20T10:14:37;19.90;;;11.20;;
19836;SDS011;10079;55.740;37.662;2023-02-20T10:17:28;20.07;;;10.50;;
19836;SDS011;10079;55.740;37.662;2023-02-20T10:20:12;19.93;;;10.43;;
19836;SDS011;10079;55.740;37.662;2023-02-20T10:22:59;20.87;;;10.43;;
19836;SDS011;10079;55.740;37.662;2023-02-20T10:25:41;22.33;;;11.60;;
19836;SDS011;10079;55.740;37.662;2023-02-20T10:28:21;21.30;;;10.87;;
19836;SDS011;10079;55.740;37.662;2023-02-20T10:31:08;23.23;;;11.10;;
19836;SDS011;10079;55.740;37.662;2023-02-20T10:33:49;17.77;;;10.90;;
19836;SDS011;10079;55.740;37.662;2023-02-20T10:47:03;23.67;;;12.97;;
19836;SDS011;10079;55.740;37.662;2023-02-20T10:49:50;23.97;;;12.43;;
19836;SDS011;10079;55.740;37.662;2023-02-20T10:52:36;24.10;;;12.47;;
19836;SDS011;10079;55.740;37.662;2023-02-20T10:55:24;25.37;;;13.00;;
19836;SDS011;10079;55.740;37.662;2023-02-20T10:58:04;24.37;;;12.73;;
19836;SDS011;10079;55.740;37.662;2023-02-20T11:00:59;26.30;;;13.37;;
19836;SDS011;10079;55.740;37.662;2023-02-20T11:03:42;21.07;;;12.57;;
19836;SDS011;10079;55.740;37.662;2023-02-20T11:06:38;23.27;;;12.23;;
19836;SDS011;10079;55.740;37.662;2023-02-20T11:09:27;24.50;;;12.53;;
19836;SDS011;10079;55.740;37.662;2023-02-20T11:22:48;26.87;;;13.90;;
19836;SDS011;10079;55.740;37.662;2023-02-20T11:25:33;24.63;;;13.07;;
19836;SDS011;10079;55.740;37.662;2023-02-20T11:38:49;22.40;;;12.60;;
19836;SDS011;10079;55.740;37.662;2023-02-20T11:41:41;23.40;;;13.00;;
19836;SDS011;10079;55.740;37.662;2023-02-20T11:57:49;27.50;;;13.50;;
19836;SDS011;10079;55.740;37.662;2023-02-20T12:00:43;24.73;;;12.23;;
19836;SDS011;10079;55.740;37.662;2023-02-20T12:03:25;23.70;;;13.10;;
19836;SDS011;10079;55.740;37.662;2023-02-20T12:19:45;19.80;;;11.57;;
19836;SDS011;10079;55.740;37.662;2023-02-20T12:22:28;21.33;;;11.50;;
19836;SDS011;10079;55.740;37.662;2023-02-20T12:25:18;22.37;;;11.17;;
19836;SDS011;10079;55.740;37.662;2023-02-20T12:28:10;25.00;;;12.40;;
19836;SDS011;10079;55.740;37.662;2023-02-20T12:31:03;22.60;;;11.83;;
19836;SDS011;10079;55.740;37.662;2023-02-20T12:33:53;22.23;;;11.03;;
19836;SDS011;10079;55.740;37.662;2023-02-20T12:36:35;23.77;;;11.03;;
19836;SDS011;10079;55.740;37.662;2023-02-20T12:39:33;23.57;;;11.50;;
19836;SDS011;10079;55.740;37.662;2023-02-20T12:42:36;21.33;;;11.50;;
19836;SDS011;10079;55.740;37.662;2023-02-20T12:45:22;19.83;;;11.10;;
19836;SDS011;10079;55.740;37.662;2023-02-20T12:48:11;22.17;;;11.37;;
19836;SDS011;10079;55.740;37.662;2023-02-20T12:57:06;22.37;;;11.10;;
19836;SDS011;10079;55.740;37.662;2023-02-20T12:59:52;21.93;;;11.10;;
19836;SDS011;10079;55.740;37.662;2023-02-20T13:02:49;20.50;;;10.80;;
19836;SDS011;10079;55.740;37.662;2023-02-20T13:05:29;18.90;;;10.33;;
19836;SDS011;10079;55.740;37.662;2023-02-20T13:08:13;25.23;;;11.07;;
19836;SDS011;10079;55.740;37.662;2023-02-20T13:21:28;21.70;;;11.50;;
19836;SDS011;10079;55.740;37.662;2023-02-20T13:24:11;21.47;;;10.73;;
19836;SDS011;10079;55.740;37.662;2023-02-20T13:27:30;22.77;;;11.47;;
19836;SDS011;10079;55.740;37.662;2023-02-20T13:30:17;26.90;;;12.93;;
19836;SDS011;10079;55.740;37.662;2023-02-20T13:33:12;22.07;;;11.00;;
19836;SDS011;10079;55.740;37.662;2023-02-20T13:35:56;22.07;;;11.00;;
19836;SDS011;10079;55.740;37.662;2023-02-20T13:38:37;23.77;;;11.00;;
19836;SDS011;10079;55.740;37.662;2023-02-20T13:41:18;28.97;;;13.83;;
19836;SDS011;10079;55.740;37.662;2023-02-20T13:44:31;23.47;;;11.63;;
19836;SDS011;10079;55.740;37.662;2023-02-20T13:46:56;20.77;;;11.70;;
19836;SDS011;10079;55.740;37.662;2023-02-20T13:52:54;22.77;;;10.93;;
19836;SDS011;10079;55.740;37.662;2023-02-20T13:55:39;21.57;;;11.13;;
19836;SDS011;10079;55.740;37.662;2023-02-20T13:58:22;23.93;;;11.37;;
19836;SDS011;10079;55.740;37.662;2023-02-20T14:11:52;25.53;;;12.60;;
19836;SDS011;10079;55.740;37.662;2023-02-20T14:25:17;27.30;;;13.50;;
19836;SDS011;10079;55.740;37.662;2023-02-20T14:28:03;23.57;;;11.30;;
19836;SDS011;10079;55.740;37.662;2023-02-20T14:30:47;21.97;;;11.50;;
19836;SDS011;10079;55.740;37.662;2023-02-20T14:33:36;26.00;;;13.03;;
19836;SDS011;10079;55.740;37.662;2023-02-20T14:50:15;25.73;;;13.50;;
19836;SDS011;10079;55.740;37.662;2023-02-20T14:53:12;26.30;;;12.87;;
19836;SDS011;10079;55.740;37.662;2023-02-20T14:55:52;21.53;;;11.27;;
19836;SDS011;10079;55.740;37.662;2023-02-20T14:58:34;23.93;;;10.87;;
19836;SDS011;10079;55.740;37.662;2023-02-20T15:01:19;24.73;;;12.37;;
19836;SDS011;10079;55.740;37.662;2023-02-20T15:04:11;29.37;;;15.98;;
19836;SDS011;10079;55.740;37.662;2023-02-20T15:06:52;31.17;;;14.63;;
19836;SDS011;10079;55.740;37.662;2023-02-20T15:09:34;24.20;;;12.73;;
19836;SDS011;10079;55.740;37.662;2023-02-20T15:12:23;25.87;;;13.07;;
19836;SDS011;10079;55.740;37.662;2023-02-20T15:15:09;24.27;;;12.17;;
19836;SDS011;10079;55.740;37.662;2023-02-20T15:18:00;26.43;;;13.47;;
19836;SDS011;10079;55.740;37.662;2023-02-20T15:20:43;26.07;;;12.70;;
19836;SDS011;10079;55.740;37.662;2023-02-20T15:23:27;25.67;;;12.67;;
19836;SDS011;10079;55.740;37.662;2023-02-20T15:31:54;37.07;;;16.17;;
19836;SDS011;10079;55.740;37.662;2023-02-20T15:34:35;24.70;;;11.83;;
19836;SDS011;10079;55.740;37.662;2023-02-20T15:37:20;28.87;;;13.80;;
19836;SDS011;10079;55.740;37.662;2023-02-20T15:40:21;29.30;;;13.07;;
19836;SDS011;10079;55.740;37.662;2023-02-20T15:43:00;27.60;;;12.70;;
19836;SDS011;10079;55.740;37.662;2023-02-20T15:45:41;26.17;;;13.23;;
19836;SDS011;10079;55.740;37.662;2023-02-20T15:48:34;27.73;;;12.77;;
19836;SDS011;10079;55.740;37.662;2023-02-20T15:51:18;26.23;;;13.03;;
19836;SDS011;10079;55.740;37.662;2023-02-20T15:53:58;25.40;;;12.33;;
19836;SDS011;10079;55.740;37.662;2023-02-20T15:56:40;30.27;;;13.20;;
19836;SDS011;10079;55.740;37.662;2023-02-20T15:59:21;26.33;;;12.50;;
19836;SDS011;10079;55.740;37.662;2023-02-20T16:02:11;28.00;;;13.77;;
19836;SDS011;10079;55.740;37.662;2023-02-20T16:04:54;34.97;;;14.83;;
19836;SDS011;10079;55.740;37.662;2023-02-20T16:07:35;31.60;;;13.97;;
19836;SDS011;10079;55.740;37.662;2023-02-20T16:10:27;29.80;;;14.83;;
19836;SDS011;10079;55.740;37.662;2023-02-20T16:16:05;29.77;;;15.37;;
19836;SDS011;10079;55.740;37.662;2023-02-20T16:42:22;31.07;;;14.30;;
19836;SDS011;10079;55.740;37.662;2023-02-20T16:45:16;33.27;;;15.57;;
19836;SDS011;10079;55.740;37.662;2023-02-20T16:48:07;28.90;;;14.53;;
19836;SDS011;10079;55.740;37.662;2023-02-20T16:50:51;33.07;;;14.37;;
19836;SDS011;10079;55.740;37.662;2023-02-20T16:53:31;31.30;;;14.73;;
19836;SDS011;10079;55.740;37.662;2023-02-20T17:17:18;36.23;;;15.77;;
19836;SDS011;10079;55.740;37.662;2023-02-20T17:19:58;31.47;;;14.90;;
19836;SDS011;10079;55.740;37.662;2023-02-20T17:22:47;28.07;;;13.70;;
19836;SDS011;10079;55.740;37.662;2023-02-20T17:25:28;33.63;;;16.03;;
19836;SDS011;10079;55.740;37.662;2023-02-20T17:28:13;32.90;;;15.40;;
19836;SDS011;10079;55.740;37.662;2023-02-20T17:30:54;35.77;;;15.60;;
19836;SDS011;10079;55.740;37.662;2023-02-20T17:33:43;34.63;;;16.30;;
19836;SDS011;10079;55.740;37.662;2023-02-20T17:36:24;36.80;;;15.93;;
19836;SDS011;10079;55.740;37.662;2023-02-20T17:39:05;34.60;;;16.63;;
19836;SDS011;10079;55.740;37.662;2023-02-20T17:41:50;35.70;;;17.37;;
19836;SDS011;10079;55.740;37.662;2023-02-20T17:44:33;36.67;;;17.23;;
19836;SDS011;10079;55.740;37.662;2023-02-20T17:47:14;38.47;;;18.67;;
19836;SDS011;10079;55.740;37.662;2023-02-20T17:49:55;40.43;;;18.23;;
19836;SDS011;10079;55.740;37.662;2023-02-20T17:52:36;38.13;;;17.20;;
19836;SDS011;10079;55.740;37.662;2023-02-20T17:55:21;38.33;;;16.83;;
19836;SDS011;10079;55.740;37.662;2023-02-20T17:58:01;39.90;;;17.73;;
19836;SDS011;10079;55.740;37.662;2023-02-20T18:00:42;37.03;;;16.03;;
19836;SDS011;10079;55.740;37.662;2023-02-20T18:03:23;42.40;;;17.20;;
19836;SDS011;10079;55.740;37.662;2023-02-20T18:06:07;34.73;;;16.80;;
19836;SDS011;10079;55.740;37.662;2023-02-20T18:08:48;38.30;;;16.53;;
19836;SDS011;10079;55.740;37.662;2023-02-20T18:11:29;37.27;;;17.27;;
19836;SDS011;10079;55.740;37.662;2023-02-20T18:14:10;35.03;;;16.77;;
19836;SDS011;10079;55.740;37.662;2023-02-20T18:16:52;38.00;;;16.10;;
19836;SDS011;10079;55.740;37.662;2023-02-20T18:19:32;35.97;;;15.77;;
19836;SDS011;10079;55.740;37.662;2023-02-20T18:22:13;41.63;;;18.20;;
19836;SDS011;10079;55.740;37.662;2023-02-20T18:24:54;40.27;;;17.80;;
19836;SDS011;10079;55.740;37.662;2023-02-20T18:27:35;42.03;;;18.03;;
19836;SDS011;10079;55.740;37.662;2023-02-20T18:30:17;39.17;;;17.90;;
19836;SDS011;10079;55.740;37.662;2023-02-20T18:32:59;42.37;;;18.57;;
19836;SDS011;10079;55.740;37.662;2023-02-20T18:35:41;39.93;;;17.77;;
19836;SDS011;10079;55.740;37.662;2023-02-20T18:38:22;44.07;;;19.10;;
19836;SDS011;10079;55.740;37.662;2023-02-20T18:41:03;43.10;;;18.03;;
19836;SDS011;10079;55.740;37.662;2023-02-20T18:43:48;40.27;;;17.40;;
19836;SDS011;10079;55.740;37.662;2023-02-20T18:46:41;39.80;;;16.73;;
19836;SDS011;10079;55.740;37.662;2023-02-20T18:49:25;43.27;;;17.07;;
19836;SDS011;10079;55.740;37.662;2023-02-20T18:52:17;38.57;;;17.57;;
19836;SDS011;10079;55.740;37.662;2023-02-20T18:55:10;48.63;;;19.40;;
19836;SDS011;10079;55.740;37.662;2023-02-20T18:58:03;44.93;;;18.07;;
19836;SDS011;10079;55.740;37.662;2023-02-20T19:00:48;39.67;;;17.37;;
19836;SDS011;10079;55.740;37.662;2023-02-20T19:03:28;49.13;;;20.10;;
19836;SDS011;10079;55.740;37.662;2023-02-20T19:09:11;44.37;;;17.50;;
19836;SDS011;10079;55.740;37.662;2023-02-20T19:11:54;43.40;;;17.83;;
19836;SDS011;10079;55.740;37.662;2023-02-20T19:14:35;43.53;;;18.00;;
19836;SDS011;10079;55.740;37.662;2023-02-20T19:17:24;43.13;;;17.83;;
19836;SDS011;10079;55.740;37.662;2023-02-20T19:20:13;41.03;;;17.60;;
19836;SDS011;10079;55.740;37.662;2023-02-20T19:22:52;44.23;;;18.03;;
19836;SDS011;10079;55.740;37.662;2023-02-20T19:36:10;47.80;;;21.60;;
19836;SDS011;10079;55.740;37.662;2023-02-20T19:49:30;42.43;;;19.87;;
19836;SDS011;10079;55.740;37.662;2023-02-20T19:52:14;45.37;;;18.83;;
19836;SDS011;10079;55.740;37.662;2023-02-20T19:54:58;52.63;;;19.23;;
19836;SDS011;10079;55.740;37.662;2023-02-20T19:57:42;42.07;;;17.77;;
19836;SDS011;10079;55.740;37.662;2023-02-20T20:00:35;41.53;;;19.33;;
19836;SDS011;10079;55.740;37.662;2023-02-20T20:03:17;37.80;;;16.50;;
19836;SDS011;10079;55.740;37.662;2023-02-20T20:05:58;34.07;;;16.17;;
19836;SDS011;10079;55.740;37.662;2023-02-20T20:08:42;46.33;;;17.53;;
19836;SDS011;10079;55.740;37.662;2023-02-20T20:11:23;48.67;;;19.03;;
19836;SDS011;10079;55.740;37.662;2023-02-20T20:14:07;39.33;;;18.87;;
19836;SDS011;10079;55.740;37.662;2023-02-20T20:16:48;38.97;;;17.47;;
19836;SDS011;10079;55.740;37.662;2023-02-20T20:19:29;35.07;;;16.30;;
19836;SDS011;10079;55.740;37.662;2023-02-20T20:22:10;35.57;;;16.93;;
19836;SDS011;10079;55.740;37.662;2023-02-20T20:24:51;38.27;;;15.97;;
19836;SDS011;10079;55.740;37.662;2023-02-20T20:38:03;38.13;;;18.27;;
